Olympia, WA

3:25 PM PDT on October 23, 2014 (GMT -0700)
Oyster Bay - Steamboat Island - Griffin | Change Station
CLOSE
Current Station
Personal Weather Station
Location: Olympia, WA
Elevation: 78 ft
Nearby Weather Stations

Elev 78 ft 47.10 °N, 123.05 °W | Updated 9 minutes ago

Rain
Rain
55.4 °F
Feels Like 55.4 °F
N
5.0
Wind Variable Wind from South
Gusts 10.0 mph

Today
High -- | Low -- °F
--% Chance of Precip.
Yesterday
High -- | Low -- °F
Precip. -- in
7:42 AM 6:10 PM
New Moon, 0% visible
Pressure 29.86 in
Visibility 10.0 miles
Clouds Scattered Clouds 2500 ft
Mostly Cloudy 6000 ft
Mostly Cloudy 9500 ft
Dew Point 50 °F
Humidity 83%
Rainfall 0.15 in
Snow Depth Not available.
UV 1 out of 12
Pollen .40 out of 12
PM2.5 Good
Flu Activity Sporadic
METAR KOLM 232154Z 21010KT 10SM SCT025 BKN060 BKN095 14/08 A2985 RMK AO2 SLP109 T01390078

More Conditions Fewer Conditions

Pressure 29.86 in
Visibility 10.0 miles
Clouds Scattered Clouds 2500 ft
Mostly Cloudy 6000 ft
Mostly Cloudy 9500 ft
Dew Point 50 °F
Humidity 83%
Rainfall 0.15 in
Snow Depth Not available.
UV 1 out of 12
Pollen .40 out of 12
PM2.5 Good
Flu Activity Sporadic
METAR KOLM 232154Z 21010KT 10SM SCT025 BKN060 BKN095 14/08 A2985 RMK AO2 SLP109 T01390078

More Conditions Fewer Conditions

10-Day Weather Forecast

Almanac

Astronomy

Oct. 23, 2014 Rise Set
Actual Time 7:42 AM PDT 6:10 PM PDT
Civil Twilight 7:10 AM PDT 6:41 PM PDT
Nautical Twilight 6:35 AM PDT 7:17 PM PDT
Astronomical Twilight 6:00 AM PDT 7:52 PM PDT
Moon 7:26 AM PDT 6:15 PM PDT
Length of Visible Light 11h 30m
Length of Day
10h 28m
Tomorrow will be 3m 11s shorter.
New Moon, 0% of the Moon is Illuminated
Today
New Moon
Oct 30
First Quarter
Nov 6
Full
Nov 14
Last Quarter
Nov 22
New

Today's Extremes

State Highs State Lows

Community

WunderPhotos

Upload Photos

1,764,387 photos uploaded!

WunderBlogs® & News

Nearby

Air Quality

  Air Quality AQ Index Pollutant
Yesterday Good
PM2.5
Current Good
PM2.5

Snow Depth

Station Depth Elevation
Burnt Mountain 0 in 4200 ft
Dungeness 0 in 4100 ft
Waterhole 2 in 5000 ft
Sheep Canyon 0 in 4030 ft
Swift Creek 1 in 3770 ft

Earthquake Activity

City Distance Mag. Time & Date
No recent earthquake activity has been reported nearby.
Minimum magnitude displayed is 2.5.

Coastal Water Temperatures

Place Temperature
Port Townsend, WA 52.0 °F
Seattle, WA 55.0 °F
Friday Harbor, WA 51.1 °F
Tacoma, WA 54.0 °F

Nearby Weather Stations